createdAt,value
2023-04-18T00:00:36.964Z,6.80
2023-04-18T00:03:04.663Z,6.10
2023-04-18T00:05:31.965Z,6.97
2023-04-18T00:07:58.767Z,6.03
2023-04-18T00:10:25.859Z,7.07
2023-04-18T00:12:52.633Z,6.40
2023-04-18T00:15:19.419Z,6.35
2023-04-18T00:17:45.957Z,6.60
2023-04-18T00:20:12.939Z,6.60
2023-04-18T00:22:43.058Z,6.60
2023-04-18T00:25:11.132Z,6.53
2023-04-18T00:27:41.628Z,6.40
2023-04-18T00:30:09.752Z,7.45
2023-04-18T00:32:38.185Z,7.40
2023-04-18T00:35:05.393Z,7.53
2023-04-18T00:37:31.985Z,7.35
2023-04-18T00:39:59.796Z,7.28
2023-04-18T00:42:28.897Z,7.75
2023-04-18T00:44:55.583Z,8.60
2023-04-18T00:47:22.847Z,7.25
2023-04-18T00:49:51.322Z,7.72
2023-04-18T00:52:18.802Z,7.15
2023-04-18T00:54:48.041Z,7.65
2023-04-18T00:57:15.137Z,7.13
2023-04-18T00:59:42.663Z,8.23
2023-04-18T01:02:09.606Z,8.55
2023-04-18T01:04:37.341Z,7.60
2023-04-18T01:07:04.902Z,8.27
2023-04-18T01:09:31.808Z,8.10
2023-04-18T01:11:58.394Z,7.90
2023-04-18T01:14:24.945Z,7.75
2023-04-18T01:16:51.784Z,8.30
2023-04-18T01:19:19.300Z,8.43
2023-04-18T01:21:46.041Z,8.50
2023-04-18T01:24:17.688Z,8.70
2023-04-18T01:26:49.696Z,8.07
2023-04-18T01:29:16.523Z,8.13
2023-04-18T01:31:44.216Z,8.13
2023-04-18T01:34:11.689Z,8.13
2023-04-18T01:36:41.155Z,8.43
2023-04-18T01:39:11.131Z,7.90
2023-04-18T01:41:38.096Z,8.07
2023-04-18T01:44:05.117Z,8.00
2023-04-18T01:46:32.270Z,8.70
2023-04-18T01:49:01.160Z,8.65
2023-04-18T01:51:28.009Z,7.93
2023-04-18T01:53:55.259Z,8.93
2023-04-18T01:56:22.251Z,8.90
2023-04-18T01:58:48.780Z,8.35
2023-04-18T02:01:15.777Z,9.02
2023-04-18T02:03:43.895Z,8.95
2023-04-18T02:06:13.294Z,8.85
2023-04-18T02:08:41.314Z,8.77
2023-04-18T02:11:08.072Z,8.52
2023-04-18T02:13:34.914Z,8.95
2023-04-18T02:16:11.409Z,9.48
2023-04-18T02:18:40.119Z,9.38
2023-04-18T02:21:07.249Z,9.05
2023-04-18T02:23:33.747Z,9.65
2023-04-18T02:26:00.705Z,9.43
2023-04-18T02:28:28.804Z,9.20
2023-04-18T02:30:56.132Z,9.30
2023-04-18T02:33:23.931Z,10.23
2023-04-18T02:35:51.968Z,9.18
2023-04-18T02:38:18.568Z,9.77
2023-04-18T02:40:46.812Z,9.25
2023-04-18T02:43:13.601Z,9.48
2023-04-18T02:45:40.539Z,9.88
2023-04-18T02:48:08.523Z,9.05
2023-04-18T02:50:36.091Z,9.40
2023-04-18T02:53:02.923Z,8.50
2023-04-18T02:55:45.085Z,9.32
2023-04-18T02:58:12.113Z,9.27
2023-04-18T03:00:58.185Z,9.07
2023-04-18T03:03:43.303Z,8.90
2023-04-18T03:06:28.960Z,9.40
2023-04-18T03:08:56.644Z,8.70
2023-04-18T03:11:24.462Z,9.13
2023-04-18T03:13:51.380Z,8.85
2023-04-18T03:16:18.983Z,8.45
2023-04-18T03:18:45.739Z,9.27
2023-04-18T03:21:12.819Z,9.57
2023-04-18T03:23:39.750Z,9.35
2023-04-18T03:26:08.161Z,8.27
2023-04-18T03:28:37.714Z,9.13
2023-04-18T03:31:05.111Z,8.60
2023-04-18T03:33:34.692Z,9.18
2023-04-18T03:36:09.091Z,9.70
2023-04-18T03:38:35.946Z,9.35
2023-04-18T03:41:03.025Z,9.60
2023-04-18T03:43:33.509Z,9.60
2023-04-18T03:46:00.736Z,9.25
2023-04-18T03:48:28.960Z,9.35
2023-04-18T03:50:59.084Z,8.90
2023-04-18T03:53:25.987Z,9.05
2023-04-18T03:55:54.794Z,9.35
2023-04-18T03:58:25.248Z,9.05
2023-04-18T04:00:53.168Z,8.70
2023-04-18T04:03:20.077Z,8.38
2023-04-18T04:05:46.862Z,9.13
2023-04-18T04:08:16.464Z,8.45
2023-04-18T04:10:44.667Z,8.75
2023-04-18T04:13:11.466Z,9.43
2023-04-18T04:15:39.931Z,8.75
2023-04-18T04:18:09.336Z,9.15
2023-04-18T04:20:39.668Z,9.15
2023-04-18T04:23:13.516Z,9.27
2023-04-18T04:25:45.732Z,8.88
2023-04-18T04:28:31.922Z,9.43
2023-04-18T04:31:03.469Z,8.85
2023-04-18T04:33:33.241Z,9.13
2023-04-18T04:36:03.365Z,9.38
2023-04-18T04:38:33.027Z,9.32
2023-04-18T04:41:00.272Z,8.38
2023-04-18T04:43:28.981Z,9.25
2023-04-18T04:45:57.807Z,9.52
2023-04-18T04:48:25.091Z,8.77
2023-04-18T04:50:59.035Z,8.75
2023-04-18T04:53:32.458Z,8.90
2023-04-18T04:56:00.816Z,8.88
2023-04-18T04:58:28.152Z,9.07
2023-04-18T05:01:24.284Z,9.30
2023-04-18T05:03:52.546Z,8.82
2023-04-18T05:06:20.923Z,9.10
2023-04-18T05:08:48.235Z,8.88
2023-04-18T05:11:15.792Z,8.68
2023-04-18T05:13:42.629Z,9.02
2023-04-18T05:16:09.695Z,9.40
2023-04-18T05:18:39.530Z,8.43
2023-04-18T05:21:06.227Z,9.40
2023-04-18T05:23:35.181Z,8.88
2023-04-18T05:26:02.081Z,8.95
2023-04-18T05:28:28.751Z,9.02
2023-04-18T05:31:05.729Z,8.38
2023-04-18T05:33:32.508Z,8.88
2023-04-18T05:35:59.753Z,7.35
2023-04-18T05:38:26.538Z,8.30
2023-04-18T05:40:55.913Z,8.25
2023-04-18T05:43:23.340Z,7.57
2023-04-18T05:45:52.748Z,8.27
2023-04-18T05:48:19.639Z,8.40
2023-04-18T05:50:46.429Z,7.35
2023-04-18T05:53:13.395Z,7.85
2023-04-18T05:55:41.140Z,7.80
2023-04-18T05:58:07.876Z,7.82
2023-04-18T06:00:36.145Z,7.70
2023-04-18T06:03:03.479Z,6.80
2023-04-18T06:05:30.773Z,6.93
2023-04-18T06:07:57.779Z,7.30
2023-04-18T06:10:24.450Z,8.55
2023-04-18T06:12:51.033Z,8.77
2023-04-18T06:15:17.763Z,8.63
2023-04-18T06:17:44.927Z,7.57
2023-04-18T06:20:13.373Z,8.00
2023-04-18T06:22:40.852Z,8.05
2023-04-18T06:25:10.025Z,8.32
2023-04-18T06:27:38.072Z,7.47
2023-04-18T06:30:08.427Z,8.15
2023-04-18T06:32:35.439Z,8.05
2023-04-18T06:35:02.415Z,8.40
2023-04-18T06:37:29.352Z,8.20
2023-04-18T06:39:56.260Z,8.75
2023-04-18T06:42:23.073Z,8.48
2023-04-18T06:44:50.099Z,9.30
2023-04-18T06:47:18.659Z,8.68
2023-04-18T06:49:45.543Z,8.75
2023-04-18T06:52:12.170Z,9.25
2023-04-18T06:54:38.810Z,8.20
2023-04-18T06:57:05.543Z,8.02
2023-04-18T06:59:32.398Z,7.30
2023-04-18T07:01:59.058Z,8.05
2023-04-18T07:04:26.235Z,8.65
2023-04-18T07:06:53.281Z,7.15
2023-04-18T07:09:20.875Z,7.90
2023-04-18T07:11:52.471Z,7.03
2023-04-18T07:14:23.614Z,7.30
2023-04-18T07:16:50.957Z,7.18
2023-04-18T07:19:17.937Z,7.00
2023-04-18T07:21:46.329Z,6.35
2023-04-18T07:24:13.338Z,7.40
2023-04-18T07:26:41.182Z,7.03
2023-04-18T07:29:08.199Z,7.25
2023-04-18T07:31:35.147Z,6.82
2023-04-18T07:34:02.113Z,7.30
2023-04-18T07:36:29.031Z,6.88
2023-04-18T07:38:55.589Z,6.63
2023-04-18T07:41:22.343Z,6.78
2023-04-18T07:43:49.027Z,6.97
2023-04-18T07:46:15.907Z,6.95
2023-04-18T07:48:42.478Z,6.70
2023-04-18T07:51:09.046Z,6.28
2023-04-18T07:53:35.977Z,6.68
2023-04-18T07:56:02.872Z,6.22
2023-04-18T07:58:30.566Z,6.55
2023-04-18T08:00:57.679Z,6.38
2023-04-18T08:03:24.596Z,6.40
2023-04-18T08:05:51.983Z,6.63
2023-04-18T08:08:18.767Z,6.68
2023-04-18T08:10:45.431Z,6.53
2023-04-18T08:13:14.750Z,7.00
2023-04-18T08:15:41.565Z,6.40
2023-04-18T08:18:08.857Z,6.55
2023-04-18T08:20:37.147Z,5.85
2023-04-18T08:23:08.625Z,5.82
2023-04-18T08:25:36.629Z,6.03
2023-04-18T08:28:04.322Z,5.80
2023-04-18T08:30:31.495Z,6.03
2023-04-18T08:33:00.499Z,5.90
2023-04-18T08:35:27.305Z,5.70
2023-04-18T08:37:53.906Z,6.05
2023-04-18T08:40:21.036Z,5.40
2023-04-18T08:42:48.283Z,5.75
2023-04-18T08:45:15.397Z,6.05
2023-04-18T08:47:42.632Z,5.05
2023-04-18T08:50:11.360Z,5.05
2023-04-18T08:52:39.892Z,5.32
2023-04-18T08:55:07.545Z,5.40
2023-04-18T08:57:36.399Z,5.30
2023-04-18T09:00:10.561Z,4.68
2023-04-18T09:02:43.057Z,5.32
2023-04-18T09:05:15.008Z,5.45
2023-04-18T09:07:42.719Z,5.13
2023-04-18T09:10:10.151Z,5.15
2023-04-18T09:12:50.673Z,5.00
2023-04-18T09:15:23.342Z,5.18
2023-04-18T09:17:56.599Z,5.75
2023-04-18T09:20:44.024Z,5.40
2023-04-18T09:23:15.009Z,6.10
2023-04-18T09:25:45.005Z,6.18
2023-04-18T09:28:33.481Z,5.70
2023-04-18T09:31:14.551Z,4.70
2023-04-18T09:33:52.812Z,5.05
2023-04-18T09:36:29.212Z,5.53
2023-04-18T09:38:57.222Z,5.45
2023-04-18T09:41:38.511Z,5.20
2023-04-18T09:44:15.520Z,5.75
2023-04-18T09:46:46.576Z,4.80
2023-04-18T09:49:14.041Z,5.55
2023-04-18T09:51:42.141Z,4.32
2023-04-18T09:54:17.005Z,5.10
2023-04-18T09:56:45.904Z,4.47
2023-04-18T09:59:17.735Z,5.28
2023-04-18T10:01:48.493Z,4.82
2023-04-18T10:04:17.039Z,5.25
2023-04-18T10:06:46.536Z,5.10
2023-04-18T10:09:14.703Z,5.47
2023-04-18T10:11:41.875Z,5.88
2023-04-18T10:14:13.336Z,5.10
2023-04-18T10:16:40.901Z,5.05
2023-04-18T10:19:30.198Z,4.40
2023-04-18T10:21:59.157Z,4.80
2023-04-18T10:24:53.568Z,4.32
2023-04-18T10:27:54.839Z,4.35
2023-04-18T10:30:41.323Z,3.85
2023-04-18T10:33:40.960Z,4.15
2023-04-18T10:36:08.972Z,4.18
2023-04-18T10:38:45.480Z,4.05
2023-04-18T10:41:28.995Z,4.20
2023-04-18T10:44:08.905Z,4.75
2023-04-18T10:46:40.116Z,4.97
2023-04-18T10:52:06.039Z,4.38
2023-04-18T10:54:37.062Z,4.22
2023-04-18T10:57:05.707Z,4.40
2023-04-18T10:59:34.829Z,4.50
2023-04-18T11:02:30.280Z,4.05
2023-04-18T11:05:04.547Z,4.28
2023-04-18T11:07:37.149Z,4.13
2023-04-18T11:10:05.716Z,4.50
2023-04-18T11:12:34.865Z,4.15
2023-04-18T11:15:09.454Z,4.20
2023-04-18T11:17:36.141Z,4.05
2023-04-18T11:20:09.167Z,4.50
2023-04-18T11:22:53.373Z,4.45
2023-04-18T11:25:23.678Z,4.30
2023-04-18T11:27:57.508Z,4.18
2023-04-18T11:30:24.157Z,3.95
2023-04-18T11:32:51.749Z,3.92
2023-04-18T11:35:19.656Z,4.10
2023-04-18T11:37:46.162Z,3.92
2023-04-18T11:40:13.847Z,4.18
2023-04-18T11:42:41.817Z,4.35
2023-04-18T11:45:15.506Z,4.32
2023-04-18T11:47:43.360Z,3.90
2023-04-18T11:50:12.810Z,4.03
2023-04-18T11:52:41.422Z,4.28
2023-04-18T11:55:14.649Z,3.72
2023-04-18T11:57:41.999Z,3.50
2023-04-18T12:00:10.762Z,3.50
2023-04-18T12:02:45.299Z,3.78
2023-04-18T12:05:14.971Z,4.10
2023-04-18T12:07:44.639Z,4.15
2023-04-18T12:10:19.986Z,4.45
2023-04-18T12:13:00.190Z,3.67
2023-04-18T12:15:28.768Z,4.07
2023-04-18T12:18:16.669Z,3.85
2023-04-18T12:20:53.998Z,4.20
2023-04-18T12:23:37.195Z,3.90
2023-04-18T12:26:05.821Z,4.10
2023-04-18T12:28:33.606Z,3.63
2023-04-18T12:31:00.429Z,4.22
2023-04-18T12:33:27.539Z,3.53
2023-04-18T12:35:54.636Z,3.50
2023-04-18T12:38:22.510Z,3.67
2023-04-18T12:40:51.043Z,3.35
2023-04-18T12:43:18.168Z,3.33
2023-04-18T12:45:46.194Z,2.95
2023-04-18T12:48:13.147Z,3.53
2023-04-18T12:50:39.613Z,3.75
2023-04-18T12:53:06.236Z,3.20
2023-04-18T12:55:32.986Z,3.80
2023-04-18T12:57:59.903Z,3.88
2023-04-18T13:00:29.876Z,3.72
2023-04-18T13:02:58.034Z,4.10
2023-04-18T13:05:29.932Z,3.35
2023-04-18T13:14:27.324Z,3.15
2023-04-18T13:20:51.936Z,3.55
2023-04-18T13:23:18.342Z,3.67
2023-04-18T13:25:45.080Z,3.88
2023-04-18T13:28:11.516Z,3.80
2023-04-18T13:30:38.072Z,3.40
2023-04-18T13:33:04.527Z,3.33
2023-04-18T13:35:31.479Z,4.50
2023-04-18T13:37:58.372Z,4.57
2023-04-18T13:40:25.233Z,4.00
2023-04-18T13:42:52.458Z,3.97
2023-04-18T13:45:19.411Z,4.25
2023-04-18T13:47:46.166Z,4.30
2023-04-18T13:50:13.246Z,3.63
2023-04-18T13:52:39.992Z,4.10
2023-04-18T13:55:07.120Z,4.38
2023-04-18T13:57:34.731Z,4.28
2023-04-18T14:00:01.740Z,4.70
2023-04-18T14:02:38.647Z,4.40
2023-04-18T14:05:06.887Z,4.30
2023-04-18T14:07:34.226Z,4.57
2023-04-18T14:10:00.917Z,5.03
2023-04-18T14:12:27.534Z,4.82
2023-04-18T14:14:53.981Z,5.15
2023-04-18T14:17:20.518Z,4.63
2023-04-18T14:19:47.933Z,4.72
2023-04-18T14:22:14.576Z,5.65
2023-04-18T14:24:41.429Z,5.80
2023-04-18T14:27:08.061Z,5.05
2023-04-18T14:29:34.798Z,5.20
2023-04-18T14:32:01.437Z,5.45
2023-04-18T14:34:28.015Z,5.57
2023-04-18T14:36:54.738Z,4.75
2023-04-18T14:39:21.623Z,5.45
2023-04-18T14:41:48.278Z,5.35
2023-04-18T14:44:14.875Z,5.18
2023-04-18T14:46:42.442Z,4.82
2023-04-18T14:49:09.010Z,5.38
2023-04-18T14:51:35.649Z,5.70
2023-04-18T14:54:02.232Z,5.38
2023-04-18T14:56:28.818Z,5.22
2023-04-18T14:58:55.483Z,6.00
2023-04-18T15:04:17.605Z,5.63
2023-04-18T15:06:45.427Z,5.35
2023-04-18T15:09:13.786Z,5.97
2023-04-18T15:11:40.372Z,5.10
2023-04-18T15:14:07.340Z,5.75
2023-04-18T15:16:35.447Z,5.90
2023-04-18T15:19:02.972Z,5.50
2023-04-18T15:21:29.916Z,5.55
2023-04-18T15:23:57.335Z,5.55
2023-04-18T15:26:24.206Z,5.35
2023-04-18T15:28:53.889Z,5.57
2023-04-18T15:31:21.746Z,5.72
2023-04-18T15:33:48.280Z,5.88
2023-04-18T15:36:14.791Z,6.25
2023-04-18T15:38:42.424Z,5.82
2023-04-18T15:41:09.996Z,6.13
2023-04-18T15:43:36.506Z,5.30
2023-04-18T15:46:04.118Z,6.25
2023-04-18T15:48:34.981Z,5.90
2023-04-18T15:51:01.617Z,5.57
2023-04-18T15:53:28.609Z,6.07
2023-04-18T15:55:55.731Z,5.70
2023-04-18T15:58:23.249Z,6.55
2023-04-18T16:00:51.301Z,6.10
2023-04-18T16:03:17.954Z,6.60
2023-04-18T16:05:44.636Z,6.30
2023-04-18T16:08:11.244Z,6.40
2023-04-18T16:10:38.047Z,5.60
2023-04-18T16:13:06.689Z,6.72
2023-04-18T16:15:41.450Z,6.40
2023-04-18T16:18:08.525Z,6.22
2023-04-18T16:20:35.834Z,6.38
2023-04-18T16:23:02.835Z,6.15
2023-04-18T16:25:29.333Z,6.50
2023-04-18T16:27:57.084Z,6.28
2023-04-18T16:30:23.571Z,5.90
2023-04-18T16:32:50.948Z,6.28
2023-04-18T16:35:18.003Z,6.40
2023-04-18T16:37:44.968Z,6.57
2023-04-18T16:40:12.659Z,6.30
2023-04-18T16:42:41.267Z,6.07
2023-04-18T16:45:09.200Z,5.88
2023-04-18T16:47:36.001Z,6.07
2023-04-18T16:50:02.603Z,5.28
2023-04-18T16:52:29.197Z,6.32
2023-04-18T16:54:55.939Z,6.07
2023-04-18T16:57:22.502Z,6.30
2023-04-18T16:59:49.041Z,6.25
2023-04-18T17:02:15.749Z,6.45
2023-04-18T17:04:42.807Z,6.03
2023-04-18T17:07:09.418Z,6.38
2023-04-18T17:09:35.917Z,6.47
2023-04-18T17:12:02.561Z,6.72
2023-04-18T17:14:29.164Z,6.20
2023-04-18T17:16:56.077Z,6.53
2023-04-18T17:19:23.029Z,6.50
2023-04-18T17:21:50.871Z,6.32
2023-04-18T17:24:18.694Z,6.43
2023-04-18T17:26:45.235Z,6.35
2023-04-18T17:29:12.956Z,6.32
2023-04-18T17:31:39.804Z,6.53
2023-04-18T17:34:06.452Z,6.13
2023-04-18T17:36:35.758Z,6.60
2023-04-18T17:39:11.634Z,6.15
2023-04-18T17:41:40.661Z,7.05
2023-04-18T17:44:08.285Z,6.05
2023-04-18T17:46:34.983Z,6.28
2023-04-18T17:49:02.772Z,6.07
2023-04-18T17:51:29.326Z,5.93
2023-04-18T17:53:55.841Z,5.50
2023-04-18T17:56:22.728Z,6.50
2023-04-18T17:58:49.878Z,5.80
2023-04-18T18:01:21.121Z,5.03
2023-04-18T18:03:48.715Z,5.57
2023-04-18T18:06:15.948Z,5.40
2023-04-18T18:08:43.240Z,5.38
2023-04-18T18:11:11.362Z,5.25
2023-04-18T18:13:40.812Z,5.07
2023-04-18T18:16:08.849Z,5.00
2023-04-18T18:18:36.368Z,5.05
2023-04-18T18:21:03.058Z,4.85
2023-04-18T18:23:31.967Z,4.72
2023-04-18T18:25:58.916Z,4.20
2023-04-18T18:28:25.634Z,4.03
2023-04-18T18:30:52.209Z,4.15
2023-04-18T18:33:19.011Z,3.45
2023-04-18T18:35:45.738Z,3.10
2023-04-18T18:38:12.237Z,2.70
2023-04-18T18:40:38.812Z,2.63
2023-04-18T18:43:05.579Z,3.05
2023-04-18T18:45:32.193Z,2.63
2023-04-18T18:47:58.860Z,2.92
2023-04-18T18:50:25.498Z,2.30
2023-04-18T18:52:52.063Z,3.03
2023-04-18T18:55:18.628Z,3.05
2023-04-18T18:57:45.178Z,2.90
2023-04-18T19:00:13.340Z,2.42
2023-04-18T19:02:40.207Z,2.70
2023-04-18T19:05:07.148Z,2.88
2023-04-18T19:07:33.685Z,2.70
2023-04-18T19:10:01.630Z,2.72
2023-04-18T19:12:29.084Z,2.33
2023-04-18T19:14:55.717Z,2.88
2023-04-18T19:17:24.867Z,2.50
2023-04-18T19:19:53.185Z,2.20
2023-04-18T19:22:19.805Z,2.53
2023-04-18T19:24:46.698Z,2.30
2023-04-18T19:27:13.246Z,2.42
2023-04-18T19:29:39.849Z,2.35
2023-04-18T19:32:06.741Z,1.95
2023-04-18T19:34:33.270Z,2.35
2023-04-18T19:37:01.555Z,2.53
2023-04-18T19:39:28.384Z,2.50
2023-04-18T19:41:54.916Z,2.38
2023-04-18T19:44:21.502Z,2.97
2023-04-18T19:46:48.080Z,2.90
2023-04-18T19:49:15.025Z,2.75
2023-04-18T19:51:42.061Z,2.80
2023-04-18T19:54:08.626Z,2.75
2023-04-18T19:56:35.136Z,2.90
2023-04-18T19:59:01.812Z,2.50
2023-04-18T20:01:28.390Z,2.45
2023-04-18T20:03:58.506Z,2.53
2023-04-18T20:06:26.826Z,2.67
2023-04-18T20:08:56.179Z,3.00
2023-04-18T20:11:22.861Z,2.58
2023-04-18T20:13:49.985Z,2.90
2023-04-18T20:16:17.266Z,2.28
2023-04-18T20:18:47.339Z,3.10
2023-04-18T20:21:14.121Z,2.70
2023-04-18T20:23:42.453Z,2.45
2023-04-18T20:26:09.304Z,2.83
2023-04-18T20:28:36.638Z,2.83
2023-04-18T20:31:03.818Z,2.95
2023-04-18T20:33:30.560Z,3.00
2023-04-18T20:35:58.904Z,3.40
2023-04-18T20:38:29.370Z,3.38
2023-04-18T20:40:58.004Z,3.03
2023-04-18T20:43:28.506Z,3.35
2023-04-18T20:45:57.645Z,3.00
2023-04-18T20:48:24.490Z,3.20
2023-04-18T20:50:51.445Z,3.08
2023-04-18T20:53:20.697Z,3.10
2023-04-18T20:55:48.153Z,3.40
2023-04-18T20:58:15.088Z,3.90
2023-04-18T21:00:41.758Z,3.42
2023-04-18T21:03:08.749Z,3.20
2023-04-18T21:05:35.709Z,3.53
2023-04-18T21:08:02.281Z,3.78
2023-04-18T21:10:28.857Z,3.67
2023-04-18T21:12:55.409Z,3.60
2023-04-18T21:15:22.344Z,4.00
2023-04-18T21:17:51.719Z,3.33
2023-04-18T21:20:18.924Z,3.70
2023-04-18T21:22:45.570Z,3.35
2023-04-18T21:25:12.439Z,3.00
2023-04-18T21:27:39.225Z,3.85
2023-04-18T21:30:06.736Z,3.45
2023-04-18T21:32:33.321Z,3.03
2023-04-18T21:35:02.741Z,2.95
2023-04-18T21:37:30.267Z,3.03
2023-04-18T21:39:56.744Z,2.65
2023-04-18T21:42:23.212Z,2.63
2023-04-18T21:44:49.748Z,3.00
2023-04-18T21:47:16.368Z,3.15
2023-04-18T21:49:42.940Z,3.08
2023-04-18T21:52:09.566Z,2.78
2023-04-18T21:54:36.085Z,2.78
2023-04-18T21:57:03.331Z,2.70
2023-04-18T21:59:30.587Z,2.72
2023-04-18T22:01:57.248Z,2.90
2023-04-18T22:04:26.196Z,2.88
2023-04-18T22:06:56.910Z,2.55
2023-04-18T22:09:23.915Z,2.90
2023-04-18T22:11:56.594Z,2.63
2023-04-18T22:14:24.819Z,3.20
2023-04-18T22:16:51.426Z,3.30
2023-04-18T22:19:19.405Z,3.17
2023-04-18T22:21:46.169Z,2.90
2023-04-18T22:24:12.868Z,2.90
2023-04-18T22:26:40.777Z,2.80
2023-04-18T22:29:07.575Z,3.50
2023-04-18T22:31:34.427Z,3.33
2023-04-18T22:34:01.162Z,3.28
2023-04-18T22:36:27.848Z,3.00
2023-04-18T22:38:54.459Z,3.63
2023-04-18T22:41:27.608Z,3.90
2023-04-18T22:43:54.708Z,3.70
2023-04-18T22:46:21.698Z,3.95
2023-04-18T22:48:49.263Z,3.97
2023-04-18T22:51:18.123Z,3.15
2023-04-18T22:53:44.736Z,3.55
2023-04-18T22:56:11.392Z,3.10
2023-04-18T22:58:38.120Z,3.08
2023-04-18T23:01:05.014Z,3.33
2023-04-18T23:03:34.400Z,3.45
2023-04-18T23:06:01.565Z,3.92
2023-04-18T23:08:29.195Z,3.08
2023-04-18T23:10:55.805Z,2.92
2023-04-18T23:13:22.321Z,2.35
2023-04-18T23:15:48.861Z,3.10
2023-04-18T23:18:15.526Z,2.70
2023-04-18T23:20:42.194Z,2.75
2023-04-18T23:23:10.110Z,2.78
2023-04-18T23:25:36.676Z,2.20
2023-04-18T23:28:03.275Z,2.55
2023-04-18T23:30:29.812Z,2.42
2023-04-18T23:32:56.578Z,2.53
2023-04-18T23:35:23.130Z,2.65
2023-04-18T23:37:50.170Z,2.03
2023-04-18T23:40:16.755Z,2.40
2023-04-18T23:42:43.845Z,2.13
2023-04-18T23:45:11.312Z,2.30
2023-04-18T23:47:38.011Z,2.13
2023-04-18T23:50:04.996Z,2.10
2023-04-18T23:52:31.508Z,2.22
2023-04-18T23:55:01.504Z,1.92
2023-04-18T23:57:28.421Z,1.80
2023-04-18T23:59:55.164Z,2.50
